createdAt,value
2019-02-03T00:00:30.787Z,99806.53
2019-02-03T00:03:02.751Z,99809.14
2019-02-03T00:05:35.007Z,99816.97
2019-02-03T00:08:07.028Z,99818.69
2019-02-03T00:10:38.876Z,99812.20
2019-02-03T00:13:10.699Z,99816.97
2019-02-03T00:15:42.567Z,99817.84
2019-02-03T00:18:14.444Z,99815.69
2019-02-03T00:20:46.195Z,99810.90
2019-02-03T00:23:19.054Z,99805.67
2019-02-03T00:25:52.470Z,99799.14
2019-02-03T00:28:24.718Z,99802.17
2019-02-03T00:30:56.545Z,99810.45
2019-02-03T00:33:31.497Z,99816.11
2019-02-03T00:36:03.422Z,99819.16
2019-02-03T00:38:37.042Z,99824.36
2019-02-03T00:41:12.023Z,99821.32
2019-02-03T00:43:43.794Z,99823.06
2019-02-03T00:46:15.674Z,99829.59
2019-02-03T00:48:47.465Z,99833.06
2019-02-03T00:51:19.375Z,99835.69
2019-02-03T00:53:51.203Z,99833.06
2019-02-03T00:56:23.010Z,99829.16
2019-02-03T00:58:54.834Z,99831.77
2019-02-03T01:01:27.737Z,99836.56
2019-02-03T01:04:01.118Z,99844.81
2019-02-03T01:06:33.180Z,99850.45
2019-02-03T01:09:11.236Z,99847.87
2019-02-03T01:11:45.689Z,99835.69
2019-02-03T01:14:17.470Z,99849.16
2019-02-03T01:16:49.346Z,99850.02
2019-02-03T01:19:21.170Z,99850.89
2019-02-03T01:21:56.126Z,99850.03
2019-02-03T01:24:31.006Z,99852.19
2019-02-03T01:27:02.910Z,99847.42
2019-02-03T01:29:35.254Z,99852.64
2019-02-03T01:32:07.339Z,99863.51
2019-02-03T01:34:40.302Z,99862.63
2019-02-03T01:37:12.231Z,99870.02
2019-02-03T01:39:44.042Z,99873.50
2019-02-03T01:42:15.814Z,99879.14
2019-02-03T01:44:47.791Z,99884.78
2019-02-03T01:47:19.602Z,99889.59
2019-02-03T01:49:51.557Z,99884.80
2019-02-03T01:52:23.462Z,99890.47
2019-02-03T01:54:57.618Z,99897.84
2019-02-03T01:57:30.522Z,99897.86
2019-02-03T02:00:04.634Z,99894.80
2019-02-03T02:02:36.954Z,99893.95
2019-02-03T02:05:12.157Z,99896.53
2019-02-03T02:07:51.189Z,99903.48
2019-02-03T02:10:21.829Z,99896.91
2019-02-03T02:12:55.355Z,99900.39
2019-02-03T02:15:27.339Z,99902.13
2019-02-03T02:17:59.136Z,99899.92
2019-02-03T02:20:31.304Z,99904.70
2019-02-03T02:23:06.896Z,99903.42
2019-02-03T02:25:41.877Z,99913.88
2019-02-03T02:28:14.785Z,99918.20
2019-02-03T02:30:46.893Z,99921.66
2019-02-03T02:33:18.770Z,99930.33
2019-02-03T02:35:50.848Z,99932.09
2019-02-03T02:38:24.289Z,99939.05
2019-02-03T02:40:56.098Z,99945.16
2019-02-03T02:43:28.019Z,99946.83
2019-02-03T02:45:59.851Z,99958.09
2019-02-03T02:48:31.751Z,99955.54
2019-02-03T02:51:03.640Z,99959.45
2019-02-03T02:53:35.481Z,99965.06
2019-02-03T02:56:07.442Z,99964.69
2019-02-03T02:58:41.357Z,99970.34
2019-02-03T03:01:13.141Z,99969.52
2019-02-03T03:03:45.125Z,99969.48
2019-02-03T03:06:18.461Z,99976.90
2019-02-03T03:08:50.413Z,99988.29
2019-02-03T03:11:22.362Z,99986.48
2019-02-03T03:13:57.404Z,99990.86
2019-02-03T03:16:33.106Z,99996.06
2019-02-03T03:19:04.974Z,99998.25
2019-02-03T03:21:37.023Z,100007.80
2019-02-03T03:24:10.093Z,100006.06
2019-02-03T03:26:42.178Z,100003.47
2019-02-03T03:29:16.616Z,100004.81
2019-02-03T03:31:48.366Z,100013.93
2019-02-03T03:34:21.037Z,100020.44
2019-02-03T03:36:52.942Z,100026.95
2019-02-03T03:39:24.798Z,100020.03
2019-02-03T03:41:56.597Z,100021.32
2019-02-03T03:44:28.397Z,100019.20
2019-02-03T03:47:00.174Z,100023.09
2019-02-03T03:49:31.955Z,100024.43
2019-02-03T03:52:03.805Z,100031.31
2019-02-03T03:54:35.600Z,100034.33
2019-02-03T03:57:07.846Z,100034.80
2019-02-03T03:59:39.589Z,100028.33
2019-02-03T04:02:11.385Z,100023.50
2019-02-03T04:04:45.775Z,100024.78
2019-02-03T04:07:16.779Z,100024.30
2019-02-03T04:09:48.692Z,100022.13
2019-02-03T04:12:20.481Z,100024.28
2019-02-03T04:14:52.323Z,100028.66
2019-02-03T04:17:24.253Z,100023.87
2019-02-03T04:19:56.134Z,100016.94
2019-02-03T04:22:27.978Z,100015.20
2019-02-03T04:24:59.755Z,100028.24
2019-02-03T04:27:31.542Z,100035.16
2019-02-03T04:30:03.363Z,100038.20
2019-02-03T04:32:35.554Z,100040.79
2019-02-03T04:35:07.760Z,100038.71
2019-02-03T04:37:39.563Z,100049.55
2019-02-03T04:40:14.690Z,100056.53
2019-02-03T04:42:46.599Z,100064.75
2019-02-03T04:45:22.355Z,100071.70
2019-02-03T04:47:52.760Z,100083.03
2019-02-03T04:50:24.675Z,100087.37
2019-02-03T04:52:56.457Z,100098.64
2019-02-03T04:55:28.266Z,100098.27
2019-02-03T04:58:01.120Z,100103.48
2019-02-03T05:00:32.884Z,100115.25
2019-02-03T05:03:04.847Z,100120.06
2019-02-03T05:05:36.652Z,100124.41
2019-02-03T05:08:08.593Z,100126.13
2019-02-03T05:10:40.766Z,100123.10
2019-02-03T05:13:12.712Z,100124.84
2019-02-03T05:15:44.631Z,100130.50
2019-02-03T05:18:16.812Z,100132.22
2019-02-03T05:20:48.621Z,100131.82
2019-02-03T05:23:20.465Z,100124.89
2019-02-03T05:25:54.580Z,100118.75
2019-02-03T05:28:25.912Z,100127.88
2019-02-03T05:30:57.834Z,100122.67
2019-02-03T05:33:29.660Z,100126.20
2019-02-03T05:36:01.462Z,100129.20
2019-02-03T05:38:33.280Z,100121.44
2019-02-03T05:41:05.348Z,100122.31
2019-02-03T05:43:37.188Z,100122.70
2019-02-03T05:46:09.044Z,100118.77
2019-02-03T05:48:40.950Z,100126.97
2019-02-03T05:51:12.812Z,100127.49
2019-02-03T05:53:44.654Z,100122.23
2019-02-03T05:56:16.427Z,100132.30
2019-02-03T05:58:49.300Z,100129.18
2019-02-03T06:01:21.286Z,100137.93
2019-02-03T06:03:53.373Z,100147.51
2019-02-03T06:06:25.310Z,100145.71
2019-02-03T06:08:57.114Z,100148.30
2019-02-03T06:11:28.922Z,100136.96
2019-02-03T06:14:00.713Z,100140.44
2019-02-03T06:16:32.615Z,100134.39
2019-02-03T06:19:04.546Z,100135.64
2019-02-03T06:21:36.420Z,100138.68
2019-02-03T06:24:08.316Z,100133.46
2019-02-03T06:26:40.121Z,100133.02
2019-02-03T06:29:11.912Z,100135.70
2019-02-03T06:31:43.895Z,100129.56
2019-02-03T06:34:15.756Z,100125.21
2019-02-03T06:36:47.578Z,100130.02
2019-02-03T06:39:19.701Z,100139.62
2019-02-03T06:41:53.858Z,100143.47
2019-02-03T06:44:25.663Z,100150.73
2019-02-03T06:47:03.396Z,100155.23
2019-02-03T06:49:39.847Z,100166.53
2019-02-03T06:52:11.760Z,100164.27
2019-02-03T06:54:45.576Z,100166.53
2019-02-03T06:57:17.127Z,100179.14
2019-02-03T06:59:50.946Z,100186.14
2019-02-03T07:02:22.798Z,100187.78
2019-02-03T07:04:54.614Z,100182.47
2019-02-03T07:07:26.511Z,100183.70
2019-02-03T07:10:00.690Z,100189.85
2019-02-03T07:12:32.073Z,100205.03
2019-02-03T07:15:05.071Z,100217.83
2019-02-03T07:17:37.014Z,100221.34
2019-02-03T07:20:10.139Z,100219.65
2019-02-03T07:22:42.210Z,100224.02
2019-02-03T07:25:14.268Z,100226.50
2019-02-03T07:27:46.277Z,100240.09
2019-02-03T07:30:18.183Z,100241.87
2019-02-03T07:32:50.092Z,100250.16
2019-02-03T07:35:21.973Z,100239.30
2019-02-03T07:37:53.831Z,100245.82
2019-02-03T07:40:25.679Z,100251.43
2019-02-03T07:42:57.493Z,100248.42
2019-02-03T07:45:29.617Z,100233.45
2019-02-03T07:48:01.436Z,100237.31
2019-02-03T07:50:33.373Z,100240.94
2019-02-03T07:53:08.384Z,100237.33
2019-02-03T07:55:38.724Z,100235.53
2019-02-03T07:58:12.430Z,100235.20
2019-02-03T08:00:44.309Z,100235.72
2019-02-03T08:03:16.207Z,100227.40
2019-02-03T08:05:48.011Z,100225.88
2019-02-03T08:08:19.897Z,100229.93
2019-02-03T08:10:51.732Z,100235.15
2019-02-03T08:13:23.549Z,100241.05
2019-02-03T08:15:55.431Z,100241.77
2019-02-03T08:18:27.277Z,100243.87
2019-02-03T08:20:59.217Z,100256.09
2019-02-03T08:23:31.113Z,100258.52
2019-02-03T08:26:02.903Z,100260.46
2019-02-03T08:28:34.794Z,100274.86
2019-02-03T08:31:06.709Z,100288.58
2019-02-03T08:33:38.503Z,100293.42
2019-02-03T08:36:11.527Z,100146.34
2019-02-03T08:38:43.443Z,100273.20
2019-02-03T08:41:15.240Z,100271.51
2019-02-03T08:43:47.050Z,100277.21
2019-02-03T08:46:18.819Z,100284.98
2019-02-03T08:48:51.996Z,100294.14
2019-02-03T08:51:24.072Z,100310.61
2019-02-03T08:53:55.928Z,100320.17
2019-02-03T08:56:28.023Z,100322.67
2019-02-03T08:58:59.846Z,100316.10
2019-02-03T09:01:31.679Z,100320.52
2019-02-03T09:04:03.466Z,100333.95
2019-02-03T09:06:35.378Z,100336.98
2019-02-03T09:09:11.159Z,100344.76
2019-02-03T09:11:43.082Z,100348.27
2019-02-03T09:14:14.948Z,100348.36
2019-02-03T09:16:46.810Z,100345.41
2019-02-03T09:19:18.910Z,100335.41
2019-02-03T09:21:54.436Z,100325.83
2019-02-03T09:24:26.257Z,100327.89
2019-02-03T09:26:59.412Z,100328.79
2019-02-03T09:29:31.547Z,100326.88
2019-02-03T09:32:06.636Z,100328.34
2019-02-03T09:34:38.703Z,100328.27
2019-02-03T09:37:10.772Z,100340.03
2019-02-03T09:39:42.691Z,100348.67
2019-02-03T09:42:16.147Z,100352.34
2019-02-03T09:44:48.037Z,100352.04
2019-02-03T09:47:20.226Z,100356.10
2019-02-03T09:49:53.598Z,100344.38
2019-02-03T09:52:27.239Z,100362.65
2019-02-03T09:55:00.882Z,100376.20
2019-02-03T09:57:32.872Z,100386.64
2019-02-03T10:00:28.387Z,100388.47
2019-02-03T10:03:02.423Z,100387.42
2019-02-03T10:05:37.304Z,100377.38
2019-02-03T10:08:10.472Z,100373.95
2019-02-03T10:10:44.567Z,100377.77
2019-02-03T10:13:16.499Z,100376.88
2019-02-03T10:15:48.450Z,100366.63
2019-02-03T10:18:20.268Z,100364.85
2019-02-03T10:20:52.144Z,100372.91
2019-02-03T10:23:24.091Z,100371.36
2019-02-03T10:25:56.028Z,100373.20
2019-02-03T10:28:27.892Z,100363.33
2019-02-03T10:30:59.964Z,100359.84
2019-02-03T10:33:34.002Z,100358.13
2019-02-03T10:36:06.926Z,100362.13
2019-02-03T10:38:39.035Z,100363.20
2019-02-03T10:41:11.049Z,100359.41
2019-02-03T10:43:43.171Z,100354.10
2019-02-03T10:46:16.622Z,100354.95
2019-02-03T10:49:09.482Z,100358.08
2019-02-03T10:51:43.746Z,100353.02
2019-02-03T10:54:15.738Z,100346.64
2019-02-03T10:56:47.691Z,100343.45
2019-02-03T10:59:19.757Z,100351.42
2019-02-03T11:04:58.749Z,100354.91
2019-02-03T11:07:30.766Z,100353.81
2019-02-03T11:10:02.725Z,100354.72
2019-02-03T11:12:35.027Z,100362.05
2019-02-03T11:15:10.155Z,100377.66
2019-02-03T11:17:43.345Z,100378.09
2019-02-03T11:20:20.839Z,100376.22
2019-02-03T11:22:52.985Z,100382.87
2019-02-03T11:25:27.229Z,100386.77
2019-02-03T11:27:59.584Z,100388.98
2019-02-03T11:30:34.583Z,100386.40
2019-02-03T11:33:09.958Z,100393.60
2019-02-03T11:35:42.186Z,100402.89
2019-02-03T11:56:00.102Z,100400.48
2019-02-03T11:58:32.285Z,100387.86
2019-02-03T12:01:04.396Z,100402.11
2019-02-03T12:03:38.517Z,100411.73
2019-02-03T12:06:11.105Z,100409.50
2019-02-03T12:08:45.759Z,100421.55
2019-02-03T12:11:17.682Z,100424.11
2019-02-03T12:13:52.535Z,100423.59
2019-02-03T12:16:26.068Z,100426.74
2019-02-03T12:19:01.370Z,100434.80
2019-02-03T12:21:36.388Z,100444.81
2019-02-03T12:24:08.812Z,100444.84
2019-02-03T12:26:44.182Z,100448.89
2019-02-03T12:29:16.692Z,100452.97
2019-02-03T12:31:52.095Z,100449.83
2019-02-03T12:34:25.446Z,100438.19
2019-02-03T12:37:02.263Z,100437.77
2019-02-03T12:39:34.560Z,100440.30
2019-02-03T12:42:13.308Z,100442.55
2019-02-03T12:44:43.010Z,100450.87
2019-02-03T12:47:18.994Z,100450.67
2019-02-03T12:49:51.555Z,100447.33
2019-02-03T12:52:23.433Z,100444.70
2019-02-03T12:54:58.998Z,100456.69
2019-02-03T12:57:31.025Z,100465.44
2019-02-03T13:00:02.912Z,100467.14
2019-02-03T13:02:36.144Z,100462.73
2019-02-03T13:05:09.258Z,100459.39
2019-02-03T13:07:43.821Z,100455.98
2019-02-03T13:10:22.836Z,100447.91
2019-02-03T13:12:57.570Z,100446.34
2019-02-03T13:15:45.779Z,100442.44
2019-02-03T13:18:19.081Z,100441.67
2019-02-03T13:20:51.505Z,100451.34
2019-02-03T13:23:23.607Z,100476.90
2019-02-03T13:25:55.466Z,100483.86
2019-02-03T13:28:27.380Z,100491.73
2019-02-03T13:30:59.224Z,100497.59
2019-02-03T13:33:31.303Z,100500.72
2019-02-03T13:36:03.192Z,100506.47
2019-02-03T13:38:35.448Z,100515.27
2019-02-03T13:41:09.200Z,100504.76
2019-02-03T13:43:41.507Z,100505.80
2019-02-03T13:46:37.702Z,100514.39
2019-02-03T13:49:13.359Z,100516.41
2019-02-03T13:51:51.694Z,100532.13
2019-02-03T13:54:27.687Z,100552.70
2019-02-03T13:57:05.053Z,100565.22
2019-02-03T14:06:24.074Z,100575.58
2019-02-03T14:08:59.106Z,100569.63
2019-02-03T14:11:31.124Z,100571.42
2019-02-03T14:14:03.050Z,100580.64
2019-02-03T14:16:34.965Z,100591.48
2019-02-03T14:19:06.948Z,100588.34
2019-02-03T14:21:38.969Z,100584.33
2019-02-03T14:24:10.956Z,100596.51
2019-02-03T14:26:46.342Z,100608.16
2019-02-03T14:29:22.516Z,100614.17
2019-02-03T14:32:11.195Z,100618.14
2019-02-03T14:42:20.915Z,100642.19
2019-02-03T14:45:49.502Z,100646.16
2019-02-03T14:48:50.698Z,100645.33
2019-02-03T14:51:51.797Z,100638.84
2019-02-03T14:54:27.588Z,100629.64
2019-02-03T14:56:59.659Z,100634.41
2019-02-03T14:59:58.800Z,100637.76
2019-02-03T15:10:26.660Z,100648.94
2019-02-03T15:15:20.639Z,100646.33
2019-02-03T15:24:59.744Z,100653.92
2019-02-03T15:27:58.571Z,100651.97
2019-02-03T15:51:04.415Z,100695.51
2019-02-03T15:53:37.550Z,100705.97
2019-02-03T15:56:09.380Z,100706.45
2019-02-03T15:58:56.827Z,100719.95
2019-02-03T16:01:22.895Z,100714.84
2019-02-03T16:03:58.125Z,100717.34
2019-02-03T16:06:30.053Z,100716.47
2019-02-03T16:09:01.880Z,100707.86
2019-02-03T16:11:35.736Z,100702.03
2019-02-03T16:14:10.963Z,100706.42
2019-02-03T16:16:43.116Z,100711.61
2019-02-03T16:19:15.174Z,100725.43
2019-02-03T16:21:47.363Z,100725.39
2019-02-03T16:24:19.136Z,100734.55
2019-02-03T16:26:51.020Z,100747.14
2019-02-03T16:29:24.129Z,100757.17
2019-02-03T16:31:56.582Z,100756.33
2019-02-03T16:34:30.261Z,100754.60
2019-02-03T16:37:02.303Z,100757.18
2019-02-03T16:39:37.453Z,100762.17
2019-02-03T16:42:09.647Z,100762.92
2019-02-03T16:44:41.560Z,100769.05
2019-02-03T16:47:13.450Z,100776.48
2019-02-03T16:49:46.687Z,100782.55
2019-02-03T16:52:18.801Z,100785.96
2019-02-03T16:54:50.627Z,100781.98
2019-02-03T16:57:22.798Z,100805.14
2019-02-03T16:59:57.460Z,100802.98
2019-02-03T17:02:34.029Z,100811.73
2019-02-03T17:05:08.362Z,100810.39
2019-02-03T17:07:40.740Z,100811.38
2019-02-03T17:10:14.490Z,100819.34
2019-02-03T17:12:46.420Z,100827.16
2019-02-03T17:15:25.708Z,100834.91
2019-02-03T17:17:57.531Z,100847.85
2019-02-03T17:20:30.661Z,100853.56
2019-02-03T17:23:10.284Z,100853.11
2019-02-03T17:25:55.702Z,100854.83
2019-02-03T17:28:27.624Z,100854.37
2019-02-03T17:30:59.411Z,100856.88
2019-02-03T17:33:31.594Z,100857.48
2019-02-03T17:36:03.601Z,100867.14
2019-02-03T17:38:36.786Z,100872.28
2019-02-03T17:41:10.287Z,100876.27
2019-02-03T17:43:43.594Z,100880.53
2019-02-03T17:46:15.937Z,100881.09
2019-02-03T17:48:47.867Z,100827.36
2019-02-03T17:51:19.722Z,100894.00
2019-02-03T17:53:55.822Z,100898.37
2019-02-03T17:56:30.104Z,100899.28
2019-02-03T17:59:19.219Z,100905.80
2019-02-03T18:01:54.875Z,100909.72
2019-02-03T18:04:28.389Z,100917.02
2019-02-03T18:07:04.366Z,100918.27
2019-02-03T18:09:48.168Z,100921.23
2019-02-03T18:12:24.061Z,100922.15
2019-02-03T18:14:56.332Z,100931.28
2019-02-03T18:17:28.930Z,100925.37
2019-02-03T18:20:01.561Z,100929.20
2019-02-03T18:22:44.571Z,100936.11
2019-02-03T18:25:31.519Z,100938.34
2019-02-03T18:28:03.966Z,100937.53
2019-02-03T18:30:36.157Z,100944.94
2019-02-03T18:33:13.602Z,100946.58
2019-02-03T18:35:45.946Z,100954.91
2019-02-03T18:38:18.246Z,100957.09
2019-02-03T18:40:50.424Z,100956.29
2019-02-03T18:43:22.716Z,100964.54
2019-02-03T18:45:54.770Z,100961.31
2019-02-03T18:48:27.817Z,100963.96
2019-02-03T18:51:36.142Z,100965.61
2019-02-03T18:54:10.002Z,100963.80
2019-02-03T18:56:41.989Z,100970.24
2019-02-03T18:59:13.986Z,100972.93
2019-02-03T19:01:46.317Z,100982.52
2019-02-03T19:04:18.626Z,100980.49
2019-02-03T19:06:52.094Z,100991.73
2019-02-03T19:09:24.178Z,100989.55
2019-02-03T19:11:57.732Z,100992.66
2019-02-03T19:14:31.252Z,100993.96
2019-02-03T19:17:06.459Z,100994.84
2019-02-03T19:19:42.693Z,101000.44
2019-02-03T19:22:14.821Z,101006.03
2019-02-03T19:24:47.918Z,101000.02
2019-02-03T19:27:23.218Z,101005.95
2019-02-03T19:29:56.920Z,101009.74
2019-02-03T19:32:28.808Z,101014.33
2019-02-03T19:35:06.405Z,101020.30
2019-02-03T19:37:37.953Z,101031.23
2019-02-03T19:40:24.369Z,101035.61
2019-02-03T19:42:58.991Z,101035.19
2019-02-03T19:45:31.909Z,101041.61
2019-02-03T19:48:04.447Z,101044.69
2019-02-03T19:50:42.671Z,101051.12
2019-02-03T19:53:14.758Z,101044.09
2019-02-03T19:55:47.743Z,101053.64
2019-02-03T19:58:19.803Z,101058.39
2019-02-03T20:00:51.861Z,101066.20
2019-02-03T20:03:23.739Z,101063.59
2019-02-03T20:05:56.844Z,101059.22
2019-02-03T20:08:31.188Z,100936.30
2019-02-03T20:11:10.128Z,101071.84
2019-02-03T20:13:42.341Z,101075.75
2019-02-03T20:16:15.659Z,101080.96
2019-02-03T20:18:47.988Z,101088.78
2019-02-03T20:21:21.439Z,101091.81
2019-02-03T20:23:53.498Z,101099.59
2019-02-03T20:26:39.808Z,101105.41
2019-02-03T20:29:12.218Z,101107.92
2019-02-03T20:31:45.136Z,101107.55
2019-02-03T20:34:17.969Z,101115.00
2019-02-03T20:36:52.353Z,101121.98
2019-02-03T20:39:26.250Z,101121.84
2019-02-03T20:42:31.673Z,101126.73
2019-02-03T20:45:03.629Z,101139.45
2019-02-03T20:47:36.651Z,101142.47
2019-02-03T20:50:12.446Z,101150.47
2019-02-03T20:52:44.369Z,101145.31
2019-02-03T20:55:17.170Z,101157.05
2019-02-03T20:57:50.194Z,101157.88
2019-02-03T21:00:25.007Z,101150.71
2019-02-03T21:02:56.900Z,101159.97
2019-02-03T21:05:28.868Z,101164.26
2019-02-03T21:08:00.789Z,101163.75
2019-02-03T21:10:32.653Z,101165.98
2019-02-03T21:13:11.077Z,101169.33
2019-02-03T21:15:38.914Z,101175.89
2019-02-03T21:18:11.194Z,101180.70
2019-02-03T21:20:43.118Z,101185.91
2019-02-03T21:23:16.399Z,101182.42
2019-02-03T21:25:48.385Z,101191.17
2019-02-03T21:28:20.269Z,101196.44
2019-02-03T21:30:52.066Z,101199.84
2019-02-03T21:33:23.853Z,101205.61
2019-02-03T21:35:55.697Z,101203.88
2019-02-03T21:38:28.092Z,101206.87
2019-02-03T21:40:59.960Z,101218.03
2019-02-03T21:43:31.836Z,101226.37
2019-02-03T21:46:03.651Z,101219.11
2019-02-03T21:48:35.609Z,101225.44
2019-02-03T21:51:07.556Z,101232.94
2019-02-03T21:53:39.667Z,101230.29
2019-02-03T21:56:11.541Z,101237.23
2019-02-03T21:58:43.413Z,101232.90
2019-02-03T22:01:15.150Z,101244.30
2019-02-03T22:03:47.041Z,101241.19
2019-02-03T22:06:18.852Z,101246.30
2019-02-03T22:08:50.735Z,101250.05
2019-02-03T22:11:22.632Z,101252.59
2019-02-03T22:13:54.472Z,101255.06
2019-02-03T22:16:26.231Z,101257.08
2019-02-03T22:18:58.064Z,101266.05
2019-02-03T22:21:29.840Z,101269.14
2019-02-03T22:24:01.613Z,101270.90
2019-02-03T22:26:33.452Z,101274.30
2019-02-03T22:29:05.394Z,101283.95
2019-02-03T22:31:37.196Z,101290.05
2019-02-03T22:34:08.998Z,101289.63
2019-02-03T22:36:40.848Z,101295.31
2019-02-03T22:39:12.636Z,101298.30
2019-02-03T22:41:47.040Z,101303.55
2019-02-03T22:44:17.947Z,101314.45
2019-02-03T22:46:49.720Z,101315.39
2019-02-03T22:49:21.536Z,101317.74
2019-02-03T22:51:53.713Z,101316.53
2019-02-03T22:54:25.521Z,101324.84
2019-02-03T22:56:57.300Z,101330.78
2019-02-03T22:59:29.098Z,101320.72
2019-02-03T23:02:00.884Z,101325.62
2019-02-03T23:04:36.478Z,101326.08
2019-02-03T23:07:08.295Z,101337.88
2019-02-03T23:09:40.116Z,101340.02
2019-02-03T23:12:11.885Z,101347.31
2019-02-03T23:14:44.008Z,101345.86
2019-02-03T23:17:15.876Z,101348.78
2019-02-03T23:19:47.716Z,101358.00
2019-02-03T23:22:19.528Z,101359.63
2019-02-03T23:24:52.484Z,101362.66
2019-02-03T23:27:24.288Z,101364.16
2019-02-03T23:29:56.276Z,101366.67
2019-02-03T23:32:28.066Z,101371.47
2019-02-03T23:34:59.875Z,101376.31
2019-02-03T23:37:31.690Z,101381.11
2019-02-03T23:40:03.455Z,101384.77
2019-02-03T23:42:35.287Z,101394.64
2019-02-03T23:45:08.067Z,101389.25
2019-02-03T23:47:39.961Z,101393.90
2019-02-03T23:50:14.014Z,101398.97
2019-02-03T23:52:45.847Z,101404.28
2019-02-03T23:55:17.617Z,101412.41
2019-02-03T23:57:49.488Z,101420.14
